Time;durP1;ratioP1;P1;durP2;ratioP2;P2;SDS_P1;SDS_P2;PMS_P1;PMS_P2;Temp;Humidity;BMP_temperature;BMP_pressure;BME280_temperature;BME280_humidity;BME280_pressure;Samples;Min_cycle;Max_cycle;Signal;HPM_P1;HPM_P2
2021/06/08 00:02:11;;;;;;;6.47;3.10;;;;;;;;;;21006650;28;19921;-51
2021/06/08 00:12:13;;;;;;;5.30;3.42;;;;;;;;;;21006617;28;20052;-51
2021/06/08 00:22:15;;;;;;;3.20;2.58;;;;;;;;;;21005869;28;20377;-52
2021/06/08 00:32:16;;;;;;;3.75;2.92;;;;;;;;;;21004146;28;20049;-57
2021/06/08 00:42:26;;;;;;;3.47;2.53;;;;;;;;;;21002972;28;20094;-53
2021/06/08 00:52:27;;;;;;;5.00;2.97;;;;;;;;;;21003229;28;20055;-53
2021/06/08 01:02:29;;;;;;;4.80;2.50;;;;;;;;;;21001417;28;20047;-52
2021/06/08 01:12:31;;;;;;;4.23;2.43;;;;;;;;;;21001297;28;20862;-54
2021/06/08 01:22:33;;;;;;;6.88;2.78;;;;;;;;;;21000292;28;20052;-53
2021/06/08 01:32:36;;;;;;;3.85;2.25;;;;;;;;;;20998368;28;20052;-52
2021/06/08 01:42:38;;;;;;;3.40;2.00;;;;;;;;;;20998037;28;20051;-51
2021/06/08 01:52:40;;;;;;;4.90;2.40;;;;;;;;;;20996399;28;20473;-51
2021/06/08 02:03:00;;;;;;;4.23;2.30;;;;;;;;;;20996159;28;20432;-52
2021/06/08 02:13:24;;;;;;;3.78;2.10;;;;;;;;;;20996287;28;20056;-52
2021/06/08 02:23:27;;;;;;;2.50;2.03;;;;;;;;;;20724223;28;20046;-52
2021/06/08 02:33:29;;;;;;;3.70;2.20;;;;;;;;;;20739988;28;20049;-51
2021/06/08 02:43:32;;;;;;;6.13;1.98;;;;;;;;;;20739404;28;20104;-52
2021/06/08 02:53:35;;;;;;;2.70;2.10;;;;;;;;;;20789444;28;20477;-52
2021/06/08 03:03:39;;;;;;;3.45;1.75;;;;;;;;;;20996066;28;20503;-52
2021/06/08 03:13:41;;;;;;;4.00;1.77;;;;;;;;;;21010313;28;20488;-52
2021/06/08 03:23:47;;;;;;;2.50;1.60;;;;;;;;;;21009700;28;20481;-51
2021/06/08 03:33:49;;;;;;;2.75;1.67;;;;;;;;;;21009369;28;20056;-52
2021/06/08 03:43:51;;;;;;;3.08;1.65;;;;;;;;;;21007391;28;20049;-51
2021/06/08 03:53:53;;;;;;;3.17;1.50;;;;;;;;;;21006915;28;20071;-51
2021/06/08 04:03:55;;;;;;;3.57;1.90;;;;;;;;;;21007194;28;20056;-53
2021/06/08 04:13:57;;;;;;;1.90;1.60;;;;;;;;;;21006683;28;20072;-52
2021/06/08 04:23:59;;;;;;;3.43;1.50;;;;;;;;;;20987267;28;20053;-53
2021/06/08 04:34:01;;;;;;;4.85;1.83;;;;;;;;;;21003089;28;20098;-60
2021/06/08 04:44:03;;;;;;;5.77;1.83;;;;;;;;;;21003369;28;20045;-52
2021/06/08 04:54:05;;;;;;;3.05;1.95;;;;;;;;;;21000892;28;20056;-52
2021/06/08 05:04:11;;;;;;;3.27;2.00;;;;;;;;;;21001650;28;20481;-52
2021/06/08 05:14:16;;;;;;;5.53;3.10;;;;;;;;;;20999793;28;20048;-52
2021/06/08 05:24:18;;;;;;;3.95;2.25;;;;;;;;;;20999779;28;20051;-51
2021/06/08 05:34:21;;;;;;;4.17;2.13;;;;;;;;;;20999667;28;20052;-52
2021/06/08 05:44:22;;;;;;;2.55;1.83;;;;;;;;;;20981402;28;20127;-54
2021/06/08 05:54:24;;;;;;;8.43;2.72;;;;;;;;;;20998009;28;20053;-53
2021/06/08 06:04:26;;;;;;;4.30;2.00;;;;;;;;;;20997031;28;20098;-52
2021/06/08 06:14:29;;;;;;;3.60;2.03;;;;;;;;;;20996788;28;20053;-55
2021/06/08 06:24:33;;;;;;;3.67;1.92;;;;;;;;;;20996017;28;20045;-52
2021/06/08 06:34:35;;;;;;;4.50;3.08;;;;;;;;;;20995083;28;20057;-52
2021/06/08 06:44:37;;;;;;;3.20;2.10;;;;;;;;;;20994684;28;20080;-54
2021/06/08 06:54:39;;;;;;;3.78;2.15;;;;;;;;;;20994481;28;20052;-52
2021/06/08 07:04:41;;;;;;;6.03;2.20;;;;;;;;;;20975607;28;20048;-54
2021/06/08 07:14:43;;;;;;;4.47;2.17;;;;;;;;;;20993499;28;20049;-53
2021/06/08 07:24:45;;;;;;;8.27;3.13;;;;;;;;;;20975636;28;20040;-53
2021/06/08 07:34:52;;;;;;;5.43;2.60;;;;;;;;;;20992153;28;20057;-52
2021/06/08 07:45:01;;;;;;;8.55;2.97;;;;;;;;;;20993379;28;20481;-53
2021/06/08 07:55:04;;;;;;;8.48;2.92;;;;;;;;;;20983222;28;20045;-53
2021/06/08 08:05:10;;;;;;;7.65;2.78;;;;;;;;;;21007362;28;20048;-58
2021/06/08 08:15:12;;;;;;;10.77;3.08;;;;;;;;;;21006360;28;20053;-52
2021/06/08 08:25:14;;;;;;;5.55;3.10;;;;;;;;;;21005581;28;20071;-51
2021/06/08 08:35:15;;;;;;;11.48;3.38;;;;;;;;;;21004537;28;20060;-53
2021/06/08 08:45:17;;;;;;;7.75;3.05;;;;;;;;;;21003683;28;20057;-53
2021/06/08 08:55:19;;;;;;;10.43;3.58;;;;;;;;;;20984739;28;20048;-52
2021/06/08 09:05:21;;;;;;;7.47;4.38;;;;;;;;;;21002751;28;20099;-53
2021/06/08 09:15:22;;;;;;;8.85;3.10;;;;;;;;;;21000862;28;20048;-52
2021/06/08 09:25:36;;;;;;;6.93;3.55;;;;;;;;;;21000655;28;20098;-52
2021/06/08 09:35:38;;;;;;;9.68;2.70;;;;;;;;;;20999300;28;20056;-53
2021/06/08 09:45:41;;;;;;;9.80;2.97;;;;;;;;;;20998604;28;20059;-54
2021/06/08 09:56:06;;;;;;;7.05;2.92;;;;;;;;;;20997910;28;20064;-54
2021/06/08 10:06:09;;;;;;;5.95;2.47;;;;;;;;;;20979559;28;20049;-54
2021/06/08 10:16:13;;;;;;;8.70;3.75;;;;;;;;;;20996138;28;20080;-53
2021/06/08 10:26:15;;;;;;;8.32;2.63;;;;;;;;;;20996250;28;20045;-55
2021/06/08 10:36:17;;;;;;;6.18;2.92;;;;;;;;;;20994953;28;20048;-58
2021/06/08 10:46:23;;;;;;;7.85;3.17;;;;;;;;;;20995650;28;20127;-53
2021/06/08 10:56:32;;;;;;;19.55;3.30;;;;;;;;;;20994942;28;20055;-53
2021/06/08 11:06:47;;;;;;;6.93;2.67;;;;;;;;;;20993731;28;20044;-63
2021/06/08 11:16:56;;;;;;;5.10;2.60;;;;;;;;;;20994307;28;20064;-54
2021/06/08 11:26:58;;;;;;;5.27;2.20;;;;;;;;;;20980667;28;20135;-54
2021/06/08 11:36:59;;;;;;;5.47;1.80;;;;;;;;;;20991720;28;20153;-54
2021/06/08 11:47:02;;;;;;;5.47;2.47;;;;;;;;;;20989367;28;20045;-53
2021/06/08 11:57:14;;;;;;;5.40;2.60;;;;;;;;;;21007477;28;20454;-53
2021/06/08 12:07:16;;;;;;;7.68;2.90;;;;;;;;;;21005876;28;20040;-55
2021/06/08 12:17:21;;;;;;;4.78;2.60;;;;;;;;;;20988473;28;20091;-53
2021/06/08 12:27:41;;;;;;;4.78;2.17;;;;;;;;;;21004895;28;20552;-53
2021/06/08 12:37:43;;;;;;;6.60;2.92;;;;;;;;;;21002936;28;20087;-53
2021/06/08 12:47:45;;;;;;;5.65;3.40;;;;;;;;;;21003464;28;20079;-53
2021/06/08 12:57:47;;;;;;;10.52;3.03;;;;;;;;;;21002359;28;20044;-53
2021/06/08 13:07:49;;;;;;;6.65;2.85;;;33.90;21.40;;;;;;21002014;28;20182;-57
2021/06/08 13:17:50;;;;;;;4.57;2.70;;;33.70;21.50;;;;;;21001326;28;20044;-58
2021/06/08 13:27:53;;;;;;;5.32;2.33;;;33.10;21.50;;;;;;20981961;28;20064;-56
2021/06/08 13:37:57;;;;;;;3.25;2.22;;;;;;;;;;20998535;28;20122;-55
2021/06/08 13:48:22;;;;;;;4.32;2.58;;;;;;;;;;20997048;28;20051;-58
2021/06/08 14:08:56;;;;;;;2.97;2.00;;;;;;;;;;20742739;28;20430;-52
2021/06/08 14:18:58;;;;;;;5.93;2.10;;;;;;;;;;20741077;28;20054;-53
2021/06/08 14:29:00;;;;;;;5.55;2.35;;;;;;;;;;20802433;28;20087;-53
2021/06/08 14:39:03;;;;;;;5.22;2.33;;;;;;;;;;20994672;28;20057;-57
2021/06/08 14:49:07;;;;;;;3.60;2.45;;;;;;;;;;20994720;28;20508;-57
2021/06/08 14:59:09;;;;;;;2.97;1.80;;;;;;;;;;20996089;28;20506;-56
2021/06/08 15:09:13;;;;;;;4.82;2.20;;;;;;;;;;21011070;28;20056;-54
2021/06/08 15:19:17;;;;;;;2.92;2.17;;;;;;;;;;21009956;28;20103;-54
2021/06/08 15:29:19;;;;;;;4.25;2.20;;;;;;;;;;21009085;28;20076;-53
2021/06/08 15:39:20;;;;;;;3.42;2.00;;;;;;;;;;21009251;28;20555;-58
2021/06/08 15:49:22;;;;;;;3.13;2.22;;;;;;;;;;21007804;28;20057;-54
2021/06/08 15:59:23;;;;;;;6.38;3.50;;;;;;;;;;21007121;28;20049;-57
2021/06/08 16:09:25;;;;;;;4.53;2.10;;;;;;;;;;20959409;28;20233;-55
2021/06/08 16:19:26;;;;;;;5.55;3.42;;;;;;;;;;20994802;28;20091;-57
2021/06/08 16:29:28;;;;;;;3.08;2.30;;;;;;;;;;20989674;28;20554;-53
2021/06/08 16:39:30;;;;;;;3.47;2.33;;;;;;;;;;20994476;28;20045;-55
2021/06/08 16:49:31;;;;;;;4.95;2.30;;;;;;;;;;20977263;28;20109;-53
2021/06/08 16:59:33;;;;;;;3.55;2.97;;;;;;;;;;20974441;28;20059;-52
2021/06/08 17:09:35;;;;;;;4.88;3.35;;;;;;;;;;20995183;28;20089;-50
2021/06/08 17:19:36;;;;;;;5.07;3.45;;;;;;;;;;20994909;28;20048;-54
2021/06/08 17:29:38;;;;;;;5.35;2.95;;;;;;;;;;20995500;28;20076;-56
2021/06/08 17:39:40;;;;;;;6.55;2.97;;;;;;;;;;20977575;28;20132;-53
2021/06/08 17:49:42;;;;;;;7.00;3.10;;;;;;;;;;20994991;28;20083;-53
2021/06/08 17:59:43;;;;;;;5.57;3.60;;;;;;;;;;20994697;28;20083;-53
2021/06/08 18:09:45;;;;;;;4.88;3.80;;;;;;;;;;20993349;28;20056;-53
2021/06/08 18:20:01;;;;;;;4.93;3.05;;;;;;;;;;20993181;28;20496;-52
2021/06/08 18:30:04;;;;;;;5.22;2.95;;;;;;;;;;20992565;28;20056;-56
2021/06/08 18:40:06;;;;;;;9.65;3.80;;;;;;;;;;20974327;28;20477;-56
2021/06/08 18:50:08;;;;;;;9.50;4.40;;;;;;;;;;20967227;28;20041;-55
2021/06/08 19:00:12;;;;;;;7.95;4.40;;;;;;;;;;20986184;28;20090;-55
2021/06/08 19:10:13;;;;;;;4.50;3.72;;;;;;;;;;20991435;28;20044;-53
2021/06/08 19:20:17;;;;;;;5.68;2.85;;;;;;;;;;20991030;28;20052;-52
2021/06/08 19:30:19;;;;;;;7.68;4.80;;;;;;;;;;20991554;28;20098;-54
2021/06/08 19:40:21;;;;;;;8.18;3.47;;;;;;;;;;20991448;28;20048;-53
2021/06/08 19:50:22;;;;;;;4.95;3.03;;;;;;;;;;20999073;28;20052;-59
2021/06/08 20:00:25;;;;;;;6.90;3.95;;;;;;;;;;21006694;28;20048;-52
2021/06/08 20:10:26;;;;;;;5.55;3.63;;;;;;;;;;21005546;28;20056;-58
2021/06/08 20:20:28;;;;;;;4.85;3.20;;;;;;;;;;21005383;28;20049;-56
2021/06/08 20:30:30;;;;;;;4.25;3.40;;;;;;;;;;21004360;28;20114;-53
2021/06/08 20:40:32;;;;;;;8.93;6.68;;;;;;;;;;21003758;28;20059;-57
2021/06/08 20:50:33;;;;;;;6.82;3.72;;;;;;;;;;21002619;28;20049;-53
2021/06/08 21:00:35;;;;;;;7.65;5.72;;;;;;;;;;21002442;28;20052;-54
2021/06/08 21:10:37;;;;;;;6.00;3.05;;;;;;;;;;21001813;28;20394;-54
2021/06/08 21:20:38;;;;;;;3.72;3.08;;;;;;;;;;21001193;28;20049;-53
2021/06/08 21:30:40;;;;;;;4.38;3.17;;;;;;;;;;21000446;28;20477;-53
2021/06/08 21:40:42;;;;;;;4.72;2.70;;;;;;;;;;20999576;28;20052;-52
2021/06/08 21:50:43;;;;;;;7.20;3.05;;;;;;;;;;20999473;28;20048;-52
2021/06/08 22:00:45;;;;;;;4.95;3.88;;;;;;;;;;20997917;28;20052;-53
2021/06/08 22:10:47;;;;;;;3.22;2.63;;;;;;;;;;20978540;28;20051;-52
2021/06/08 22:20:49;;;;;;;3.90;3.15;;;;;;;;;;20996412;28;20060;-54
2021/06/08 22:30:51;;;;;;;5.28;3.38;;;;;;;;;;20995755;28;20048;-59
2021/06/08 22:40:52;;;;;;;4.78;3.20;;;;;;;;;;20995750;28;20056;-53
2021/06/08 22:50:54;;;;;;;5.30;3.00;;;;;;;;;;20996256;28;20072;-53
2021/06/08 23:00:55;;;;;;;5.25;3.30;;;;;;;;;;20976374;28;20080;-52
2021/06/08 23:10:57;;;;;;;4.45;3.30;;;;;;;;;;20994629;28;20504;-51
2021/06/08 23:20:59;;;;;;;6.68;4.05;;;;;;;;;;20996514;28;20511;-53
2021/06/08 23:31:00;;;;;;;5.15;3.30;;;;;;;;;;21009833;28;20072;-52
2021/06/08 23:41:02;;;;;;;5.85;3.25;;;;;;;;;;21008705;28;20594;-51
2021/06/08 23:51:04;;;;;;;8.00;3.45;;;;;;;;;;21008488;28;20400;-58
